Time;durP1;ratioP1;P1;durP2;ratioP2;P2;SDS_P1;SDS_P2;PMS_P1;PMS_P2;Temp;Humidity;BMP_temperature;BMP_pressure;BME280_temperature;BME280_humidity;BME280_pressure;Samples;Min_cycle;Max_cycle;Signal;HPM_P1;HPM_P2
2020/12/11 00:00:27;;;;;;;42.92;28.83;;;4.10;99.90;;;;;;5072583;28;20025;-70
2020/12/11 00:02:52;;;;;;;52.67;29.27;;;3.70;99.90;;;;;;5072352;28;20576;-70
2020/12/11 00:05:20;;;;;;;48.22;29.52;;;3.50;99.90;;;;;;5072974;28;20017;-71
2020/12/11 00:07:46;;;;;;;54.90;29.98;;;3.90;99.90;;;;;;5072524;28;20059;-70
2020/12/11 00:10:13;;;;;;;40.20;25.75;;;3.50;99.90;;;;;;5067042;28;20076;-70
2020/12/11 00:12:39;;;;;;;48.25;30.02;;;3.70;99.90;;;;;;5072754;28;20024;-72
2020/12/11 00:15:06;;;;;;;42.40;26.13;;;4.20;99.90;;;;;;5072453;28;20033;-71
2020/12/11 00:17:32;;;;;;;44.05;26.30;;;4.50;99.90;;;;;;5072405;28;20462;-70
2020/12/11 00:19:58;;;;;;;49.00;27.88;;;3.90;99.90;;;;;;5072383;28;20036;-71
2020/12/11 00:22:24;;;;;;;41.75;26.83;;;3.90;99.90;;;;;;5072401;28;20029;-73
2020/12/11 00:24:50;;;;;;;46.28;25.73;;;3.70;99.90;;;;;;5072437;28;20024;-70
2020/12/11 00:27:16;;;;;;;42.13;26.33;;;4.10;99.90;;;;;;5072321;28;20024;-70
2020/12/11 00:29:42;;;;;;;39.83;23.60;;;4.20;99.90;;;;;;5072210;28;20367;-70
2020/12/11 00:32:08;;;;;;;45.75;26.73;;;4.50;99.90;;;;;;5070809;28;20442;-71
2020/12/11 00:34:34;;;;;;;45.00;24.60;;;;;;;;;;5072202;28;20025;-71
2020/12/11 00:37:00;;;;;;;42.78;24.95;;;4.20;99.90;;;;;;5072194;28;20478;-71
2020/12/11 00:39:26;;;;;;;38.67;23.63;;;3.50;99.90;;;;;;5071923;28;20024;-71
2020/12/11 00:41:54;;;;;;;42.80;24.38;;;4.30;99.90;;;;;;5072279;28;20021;-71
2020/12/11 00:44:20;;;;;;;37.42;23.63;;;3.40;99.90;;;;;;5072022;28;20069;-72
2020/12/11 00:46:45;;;;;;;45.33;25.08;;;3.90;99.90;;;;;;5072421;28;20099;-71
2020/12/11 00:49:11;;;;;;;42.10;24.95;;;;;;;;;;5071930;28;20021;-72
2020/12/11 00:51:37;;;;;;;35.88;21.20;;;4.30;99.90;;;;;;5070775;28;20013;-71
2020/12/11 00:54:03;;;;;;;41.90;22.63;;;3.80;99.90;;;;;;5072407;28;20303;-72
2020/12/11 00:56:29;;;;;;;37.97;22.50;;;;;;;;;;5071981;28;20020;-72
2020/12/11 00:58:55;;;;;;;34.85;22.50;;;4.20;99.90;;;;;;5072699;28;20825;-72
2020/12/11 01:01:21;;;;;;;42.42;23.98;;;4.20;99.90;;;;;;5074884;28;20428;-71
2020/12/11 01:03:47;;;;;;;40.13;23.75;;;4.20;99.90;;;;;;5075670;28;20020;-72
2020/12/11 01:06:12;;;;;;;39.25;24.08;;;4.20;99.90;;;;;;5075398;28;20465;-72
2020/12/11 01:08:38;;;;;;;36.13;24.63;;;4.30;99.90;;;;;;5076164;28;20021;-69
2020/12/11 01:11:04;;;;;;;37.92;22.17;;;4.30;99.90;;;;;;5095111;28;20097;-70
2020/12/11 01:13:30;;;;;;;35.85;22.52;;;4.10;99.90;;;;;;5095575;28;20115;-68
2020/12/11 01:15:56;;;;;;;40.05;24.70;;;4.30;99.90;;;;;;5095787;28;20416;-72
2020/12/11 01:18:21;;;;;;;35.95;22.23;;;4.20;99.90;;;;;;5077703;28;20358;-72
2020/12/11 01:20:47;;;;;;;43.90;24.00;;;4.10;99.90;;;;;;5095373;28;20509;-71
2020/12/11 01:23:13;;;;;;;35.53;20.85;;;4.20;99.90;;;;;;5095679;28;20103;-72
2020/12/11 01:25:39;;;;;;;32.50;21.20;;;4.20;99.90;;;;;;5095628;28;20024;-72
2020/12/11 01:28:04;;;;;;;37.22;22.70;;;3.80;99.90;;;;;;5095049;28;20047;-71
2020/12/11 01:30:32;;;;;;;36.42;23.60;;;4.30;99.90;;;;;;5095590;28;20031;-71
2020/12/11 01:32:58;;;;;;;40.33;21.50;;;4.30;99.90;;;;;;5095431;28;20466;-73
2020/12/11 01:35:24;;;;;;;39.90;23.40;;;4.80;99.90;;;;;;5094799;28;20480;-71
2020/12/11 01:37:49;;;;;;;33.38;20.52;;;4.20;99.90;;;;;;5095085;28;20020;-71
2020/12/11 01:40:15;;;;;;;34.35;23.25;;;4.10;99.90;;;;;;5095509;28;20028;-72
2020/12/11 01:42:41;;;;;;;36.17;21.65;;;4.10;99.90;;;;;;5094820;28;20028;-71
2020/12/11 01:45:07;;;;;;;37.40;23.20;;;4.20;99.90;;;;;;5095678;28;20028;-72
2020/12/11 01:47:40;;;;;;;35.15;21.55;;;4.30;99.90;;;;;;5094939;28;20027;-70
2020/12/11 01:50:08;;;;;;;37.90;22.63;;;4.40;99.90;;;;;;5095081;28;20109;-71
2020/12/11 01:52:34;;;;;;;41.03;24.88;;;4.30;99.90;;;;;;5094640;28;20052;-74
2020/12/11 01:55:00;;;;;;;44.33;23.08;;;4.20;99.90;;;;;;5094554;28;20117;-70
2020/12/11 01:57:39;;;;;;;42.53;24.88;;;4.70;99.90;;;;;;5094828;28;20024;-71
2020/12/11 02:00:08;;;;;;;43.67;24.77;;;4.00;99.90;;;;;;5084835;28;20100;-71
2020/12/11 02:02:37;;;;;;;43.40;24.60;;;4.30;99.90;;;;;;5094179;28;20035;-71
2020/12/11 02:05:10;;;;;;;36.33;22.10;;;4.30;99.90;;;;;;5094517;28;20027;-70
2020/12/11 02:07:38;;;;;;;45.42;23.73;;;4.30;99.90;;;;;;5095250;28;20031;-70
2020/12/11 02:10:04;;;;;;;37.15;23.50;;;4.20;99.90;;;;;;5093719;28;20051;-71
2020/12/11 02:12:30;;;;;;;41.40;24.50;;;4.30;99.90;;;;;;5094050;28;20043;-69
2020/12/11 02:14:56;;;;;;;38.95;24.20;;;4.40;99.90;;;;;;5094490;28;20034;-70
2020/12/11 02:17:26;;;;;;;36.22;22.33;;;4.40;99.90;;;;;;5093975;28;20026;-69
2020/12/11 02:19:55;;;;;;;38.45;23.02;;;4.40;99.90;;;;;;5076696;28;20378;-70
2020/12/11 02:22:22;;;;;;;44.13;24.88;;;4.30;99.90;;;;;;5076285;28;20077;-69
2020/12/11 02:24:49;;;;;;;43.92;24.52;;;4.30;99.90;;;;;;5094056;28;20382;-69
2020/12/11 02:27:15;;;;;;;39.72;22.95;;;4.40;99.90;;;;;;5094537;28;20028;-69
2020/12/11 02:29:41;;;;;;;44.25;25.85;;;4.40;99.90;;;;;;5094000;28;20141;-70
2020/12/11 02:32:07;;;;;;;38.55;23.02;;;4.50;99.90;;;;;;5094345;28;20119;-70
2020/12/11 02:34:33;;;;;;;42.08;24.58;;;4.40;99.90;;;;;;5076167;28;20418;-71
2020/12/11 02:37:04;;;;;;;39.80;24.63;;;4.40;99.90;;;;;;5094152;28;20028;-70
2020/12/11 02:39:30;;;;;;;38.85;23.95;;;4.40;99.90;;;;;;5094020;28;20408;-70
2020/12/11 02:41:56;;;;;;;39.05;23.05;;;4.50;99.90;;;;;;5094067;28;20028;-71
2020/12/11 02:44:22;;;;;;;42.25;23.55;;;4.40;99.90;;;;;;5075615;28;20035;-71
2020/12/11 02:46:48;;;;;;;41.15;22.15;;;4.50;99.90;;;;;;5093889;28;20016;-71
2020/12/11 02:49:14;;;;;;;37.42;22.23;;;4.40;99.90;;;;;;5094127;28;20145;-71
2020/12/11 02:51:39;;;;;;;40.50;24.80;;;4.40;99.90;;;;;;5093867;28;20039;-72
2020/12/11 02:54:05;;;;;;;41.63;25.52;;;4.40;99.90;;;;;;5093746;28;20103;-71
2020/12/11 02:56:31;;;;;;;40.05;23.27;;;4.30;99.90;;;;;;5093504;28;20027;-71
2020/12/11 02:58:57;;;;;;;40.67;23.33;;;4.30;99.90;;;;;;5093644;28;20017;-72
2020/12/11 03:01:25;;;;;;;42.40;25.02;;;4.40;99.90;;;;;;5093820;28;20020;-72
2020/12/11 03:03:51;;;;;;;40.55;23.33;;;4.40;99.90;;;;;;5094004;28;20498;-70
2020/12/11 03:06:17;;;;;;;38.17;22.65;;;4.30;99.90;;;;;;5093601;28;20028;-70
2020/12/11 03:08:43;;;;;;;37.88;22.02;;;4.20;99.90;;;;;;5093912;28;20468;-71
2020/12/11 03:11:09;;;;;;;36.47;23.48;;;4.30;99.90;;;;;;5093311;28;20043;-71
2020/12/11 03:13:34;;;;;;;39.45;21.20;;;4.20;99.90;;;;;;5093386;28;20028;-71
2020/12/11 03:16:00;;;;;;;37.65;23.30;;;4.30;99.90;;;;;;5093475;28;20032;-72
2020/12/11 03:18:26;;;;;;;43.08;24.23;;;4.30;99.90;;;;;;5093224;28;20515;-70
2020/12/11 03:20:51;;;;;;;45.63;24.20;;;4.30;99.90;;;;;;5093419;28;20020;-71
2020/12/11 03:23:17;;;;;;;37.63;24.13;;;4.30;99.90;;;;;;5093245;28;20504;-71
2020/12/11 03:25:43;;;;;;;43.83;23.80;;;4.40;99.90;;;;;;5074958;28;20072;-70
2020/12/11 03:28:08;;;;;;;43.25;25.30;;;4.40;99.90;;;;;;5093510;28;20024;-70
2020/12/11 03:30:34;;;;;;;45.03;26.05;;;4.40;99.90;;;;;;5093523;28;20076;-71
2020/12/11 03:33:00;;;;;;;40.85;23.48;;;4.40;99.90;;;;;;5092830;28;20028;-70
2020/12/11 03:35:25;;;;;;;43.53;24.73;;;4.50;99.90;;;;;;5075314;28;20039;-71
2020/12/11 03:37:51;;;;;;;44.55;24.95;;;4.40;99.90;;;;;;5092916;28;20099;-70
2020/12/11 03:40:17;;;;;;;53.75;28.08;;;4.40;99.90;;;;;;5092654;28;20028;-70
2020/12/11 03:42:42;;;;;;;50.83;29.02;;;4.40;99.90;;;;;;5092924;28;20377;-70
2020/12/11 03:45:08;;;;;;;50.45;28.23;;;4.50;99.90;;;;;;5093092;28;20027;-71
2020/12/11 03:47:34;;;;;;;47.35;26.33;;;4.40;99.90;;;;;;5092748;28;20100;-71
2020/12/11 03:50:00;;;;;;;48.25;27.17;;;4.40;99.90;;;;;;5093298;28;20123;-70
2020/12/11 03:52:29;;;;;;;50.25;27.05;;;4.40;99.90;;;;;;5092849;28;20031;-71
2020/12/11 03:54:56;;;;;;;42.58;24.90;;;4.50;99.90;;;;;;5092880;28;20028;-70
2020/12/11 03:57:21;;;;;;;48.30;27.80;;;4.50;99.90;;;;;;5093152;28;20034;-70
2020/12/11 03:59:47;;;;;;;47.63;25.60;;;4.50;99.90;;;;;;5093068;28;20024;-71
2020/12/11 04:02:15;;;;;;;47.40;27.33;;;4.50;99.90;;;;;;5074126;28;20352;-71
2020/12/11 04:04:42;;;;;;;45.22;25.75;;;4.50;99.90;;;;;;5092870;28;20028;-70
2020/12/11 04:07:08;;;;;;;43.78;25.02;;;4.50;99.90;;;;;;5092870;28;20032;-69
2020/12/11 04:09:33;;;;;;;45.72;25.58;;;4.40;99.90;;;;;;5092280;28;20393;-70
2020/12/11 04:11:59;;;;;;;45.85;27.60;;;4.40;99.90;;;;;;5092775;28;20048;-71
2020/12/11 04:14:25;;;;;;;42.28;27.65;;;4.40;99.90;;;;;;5092689;28;20390;-71
2020/12/11 04:16:50;;;;;;;46.00;26.50;;;4.40;99.90;;;;;;5092647;28;20465;-71
2020/12/11 04:19:16;;;;;;;48.65;29.65;;;4.40;99.90;;;;;;5093073;28;20035;-71
2020/12/11 04:21:51;;;;;;;53.80;30.30;;;4.30;99.90;;;;;;5093035;28;20454;-71
2020/12/11 04:24:18;;;;;;;59.92;35.40;;;4.20;99.90;;;;;;5092557;28;20032;-70
2020/12/11 04:26:44;;;;;;;56.45;27.52;;;4.20;99.90;;;;;;5092916;28;20024;-71
2020/12/11 04:29:10;;;;;;;50.42;26.50;;;4.20;99.90;;;;;;5092534;28;20027;-71
2020/12/11 04:31:36;;;;;;;51.70;25.88;;;4.20;99.90;;;;;;5092604;28;20103;-71
2020/12/11 04:34:03;;;;;;;51.58;25.60;;;4.20;99.90;;;;;;5093319;28;20127;-70
2020/12/11 04:36:29;;;;;;;43.33;26.70;;;4.30;99.90;;;;;;5095997;28;20036;-73
2020/12/11 04:38:54;;;;;;;48.25;27.65;;;4.30;99.90;;;;;;5096621;28;20051;-70
2020/12/11 04:41:20;;;;;;;45.50;30.27;;;4.20;99.90;;;;;;5096663;28;20043;-71
2020/12/11 04:43:55;;;;;;;50.00;27.20;;;4.30;99.90;;;;;;5096118;28;20473;-69
2020/12/11 04:46:26;;;;;;;56.85;30.95;;;4.30;99.90;;;;;;5096153;28;20508;-71
2020/12/11 04:48:57;;;;;;;48.17;28.17;;;4.30;99.90;;;;;;5096865;28;20035;-71
2020/12/11 04:51:24;;;;;;;61.55;32.03;;;4.40;99.90;;;;;;5095700;28;20028;-71
2020/12/11 04:53:53;;;;;;;48.05;29.40;;;4.40;99.90;;;;;;5096328;28;20039;-71
2020/12/11 04:56:22;;;;;;;53.42;30.13;;;4.40;99.90;;;;;;5094248;28;20024;-71
2020/12/11 04:58:51;;;;;;;47.85;29.55;;;4.30;99.90;;;;;;5096002;28;20024;-69
2020/12/11 05:01:31;;;;;;;44.40;26.65;;;4.40;99.90;;;;;;5095820;28;20107;-70
2020/12/11 05:03:58;;;;;;;53.40;28.98;;;4.50;99.90;;;;;;5095502;28;20490;-69
2020/12/11 05:06:25;;;;;;;47.15;26.35;;;4.40;99.90;;;;;;5095882;28;20488;-69
2020/12/11 05:09:11;;;;;;;48.13;27.92;;;4.30;99.90;;;;;;5095616;28;20039;-71
2020/12/11 05:11:38;;;;;;;42.63;24.73;;;4.30;99.90;;;;;;5094640;28;20028;-69
2020/12/11 05:14:04;;;;;;;46.90;27.02;;;4.30;99.90;;;;;;5092249;28;20032;-70
2020/12/11 05:16:29;;;;;;;52.03;29.88;;;4.30;99.90;;;;;;5095596;28;20047;-69
2020/12/11 05:19:05;;;;;;;47.25;28.50;;;4.30;99.90;;;;;;5095059;28;20065;-70
2020/12/11 05:21:32;;;;;;;53.28;29.67;;;4.20;99.90;;;;;;5095572;28;20221;-70
2020/12/11 05:24:05;;;;;;;49.85;27.30;;;4.20;99.90;;;;;;5095460;28;20047;-71
2020/12/11 05:26:33;;;;;;;49.95;26.45;;;4.20;99.90;;;;;;5095270;28;20047;-72
2020/12/11 05:28:59;;;;;;;54.75;30.60;;;4.10;99.90;;;;;;5085244;28;20035;-69
2020/12/11 05:31:26;;;;;;;52.28;29.90;;;4.00;99.90;;;;;;5091014;28;20029;-71
2020/12/11 05:34:21;;;;;;;53.28;30.02;;;4.00;99.90;;;;;;5087209;28;20028;-70
2020/12/11 05:36:52;;;;;;;53.67;30.35;;;4.10;99.90;;;;;;4984818;28;20126;-71
2020/12/11 05:39:31;;;;;;;70.57;30.13;;;3.90;99.90;;;;;;4979751;28;20023;-71
2020/12/11 05:41:58;;;;;;;56.08;32.03;;;4.00;99.90;;;;;;4981075;28;20574;-70
2020/12/11 05:44:33;;;;;;;50.25;29.95;;;4.00;99.90;;;;;;4980034;28;20029;-72
2020/12/11 05:47:22;;;;;;;63.22;30.42;;;4.10;99.90;;;;;;4976678;28;20049;-70
2020/12/11 05:49:48;;;;;;;48.63;26.25;;;4.20;99.90;;;;;;4977707;28;20026;-71
2020/12/11 05:52:24;;;;;;;54.33;27.60;;;4.20;99.90;;;;;;4994032;28;20041;-70
2020/12/11 05:54:54;;;;;;;46.35;26.85;;;4.10;99.90;;;;;;4989864;28;20043;-70
2020/12/11 05:57:24;;;;;;;50.33;28.95;;;4.20;99.90;;;;;;4990761;28;20034;-72
2020/12/11 05:59:49;;;;;;;51.80;29.08;;;4.10;99.90;;;;;;4989007;28;20037;-72
2020/12/11 06:02:21;;;;;;;55.30;30.27;;;4.10;99.90;;;;;;4990888;28;20026;-72
2020/12/11 06:04:47;;;;;;;50.08;28.35;;;4.20;99.90;;;;;;4990706;28;20038;-71
2020/12/11 06:07:14;;;;;;;61.40;31.90;;;4.20;99.90;;;;;;4991195;28;20045;-71
2020/12/11 06:09:44;;;;;;;58.40;31.98;;;4.30;99.90;;;;;;4991651;28;20046;-71
2020/12/11 06:12:11;;;;;;;54.55;30.40;;;4.20;99.90;;;;;;5009234;28;20062;-71
2020/12/11 06:14:46;;;;;;;67.25;34.90;;;4.20;99.90;;;;;;5084775;28;20062;-70
2020/12/11 06:17:14;;;;;;;78.75;37.15;;;4.30;99.90;;;;;;5083041;28;20054;-70
2020/12/11 06:19:43;;;;;;;73.50;35.90;;;4.30;99.90;;;;;;5074969;28;20020;-71
2020/12/11 06:22:09;;;;;;;83.30;36.65;;;4.30;99.90;;;;;;5075489;28;20428;-71
2020/12/11 06:24:35;;;;;;;80.93;38.75;;;4.30;99.90;;;;;;5078795;28;20532;-72
2020/12/11 06:27:03;;;;;;;75.20;37.72;;;4.30;99.90;;;;;;5076246;28;20028;-72
2020/12/11 06:29:32;;;;;;;72.93;36.67;;;4.30;99.90;;;;;;5076721;28;20505;-70
2020/12/11 06:31:58;;;;;;;81.35;42.03;;;4.40;99.90;;;;;;5073990;28;20029;-72
2020/12/11 06:34:24;;;;;;;88.57;43.22;;;4.40;99.90;;;;;;5073980;28;20036;-70
2020/12/11 06:36:52;;;;;;;89.70;42.20;;;4.40;99.90;;;;;;5072557;28;20516;-71
2020/12/11 06:39:40;;;;;;;79.28;42.45;;;4.50;99.90;;;;;;5079978;28;20019;-69
2020/12/11 06:42:07;;;;;;;88.13;42.38;;;4.60;99.90;;;;;;5074088;28;20104;-71
2020/12/11 06:44:33;;;;;;;81.43;46.33;;;4.60;99.90;;;;;;5078761;28;20424;-70
2020/12/11 06:47:05;;;;;;;79.85;41.58;;;4.60;99.90;;;;;;5073712;28;20104;-71
2020/12/11 06:49:30;;;;;;;77.65;42.78;;;4.60;99.90;;;;;;5076850;28;20233;-70
2020/12/11 06:51:56;;;;;;;70.78;36.00;;;4.60;99.90;;;;;;5086070;28;20500;-71
2020/12/11 06:54:22;;;;;;;69.95;35.03;;;4.60;99.90;;;;;;5093072;28;20501;-71
2020/12/11 06:56:50;;;;;;;80.20;41.40;;;4.60;99.90;;;;;;5092937;28;20062;-71
2020/12/11 06:59:25;;;;;;;77.25;40.00;;;4.60;99.90;;;;;;5093551;28;20036;-71
2020/12/11 07:01:53;;;;;;;83.93;41.50;;;4.60;99.90;;;;;;5087950;28;20036;-71
2020/12/11 07:04:19;;;;;;;94.93;49.72;;;4.70;99.90;;;;;;5074185;28;20024;-71
2020/12/11 07:06:52;;;;;;;88.43;43.22;;;4.60;99.90;;;;;;5075047;28;20048;-70
2020/12/11 07:09:19;;;;;;;82.70;43.53;;;4.60;99.90;;;;;;5072786;28;20049;-69
2020/12/11 07:11:46;;;;;;;83.97;45.25;;;4.70;99.90;;;;;;5057379;28;20032;-69
2020/12/11 07:14:12;;;;;;;87.03;46.78;;;4.60;99.90;;;;;;5074952;28;20077;-69
2020/12/11 07:16:39;;;;;;;101.05;46.65;;;4.70;99.90;;;;;;5073051;28;20024;-71
2020/12/11 07:19:06;;;;;;;103.35;52.72;;;4.70;99.90;;;;;;5075112;28;20382;-71
2020/12/11 07:21:33;;;;;;;93.72;50.33;;;4.70;99.90;;;;;;5093141;28;20028;-70
2020/12/11 07:24:00;;;;;;;109.13;53.70;;;4.60;99.90;;;;;;5087937;28;20393;-70
2020/12/11 07:26:26;;;;;;;96.00;49.40;;;4.70;99.90;;;;;;5092573;28;20055;-69
2020/12/11 07:29:07;;;;;;;108.03;55.35;;;4.70;99.90;;;;;;5092878;28;20105;-69
2020/12/11 07:31:43;;;;;;;109.25;57.67;;;4.70;99.90;;;;;;5092683;28;20039;-71
2020/12/11 07:34:12;;;;;;;105.47;53.92;;;4.70;99.90;;;;;;5093341;28;20026;-71
2020/12/11 07:36:41;;;;;;;87.05;46.72;;;4.70;99.90;;;;;;5093202;28;20399;-73
2020/12/11 07:39:14;;;;;;;100.68;52.10;;;4.60;99.90;;;;;;5090043;28;20103;-71
2020/12/11 07:41:43;;;;;;;111.55;60.10;;;4.60;99.90;;;;;;5085758;28;20021;-73
2020/12/11 07:44:09;;;;;;;94.53;52.75;;;4.70;99.90;;;;;;5087218;28;20039;-73
2020/12/11 07:46:39;;;;;;;106.43;55.58;;;4.70;99.90;;;;;;5085984;28;20488;-73
2020/12/11 07:49:05;;;;;;;97.57;52.63;;;4.70;99.90;;;;;;5084377;28;20104;-71
2020/12/11 07:51:32;;;;;;;96.05;53.20;;;4.80;99.90;;;;;;5090183;28;20059;-72
2020/12/11 07:53:58;;;;;;;94.07;51.35;;;4.80;99.90;;;;;;5084099;28;20401;-70
2020/12/11 07:56:26;;;;;;;103.07;60.72;;;4.90;99.90;;;;;;5093064;28;20020;-70
2020/12/11 07:58:53;;;;;;;87.35;45.67;;;4.90;99.90;;;;;;5074252;28;20032;-69
2020/12/11 08:01:18;;;;;;;95.15;51.53;;;4.80;99.90;;;;;;5092829;28;20028;-70
2020/12/11 08:03:44;;;;;;;89.30;48.25;;;4.70;99.90;;;;;;5092743;28;20031;-70
2020/12/11 08:06:11;;;;;;;80.00;43.10;;;4.70;99.90;;;;;;5092278;28;20032;-71
2020/12/11 08:08:37;;;;;;;79.05;46.40;;;4.90;99.90;;;;;;5092805;28;20474;-70
2020/12/11 08:11:03;;;;;;;95.05;52.85;;;5.00;99.90;;;;;;5089035;28;20075;-71
2020/12/11 08:13:29;;;;;;;90.85;52.17;;;5.00;99.90;;;;;;5093925;28;20032;-70
2020/12/11 08:16:01;;;;;;;100.55;52.00;;;5.10;99.90;;;;;;5096552;28;20427;-72
2020/12/11 08:18:31;;;;;;;112.33;62.77;;;5.10;99.90;;;;;;5096895;28;20035;-71
2020/12/11 08:21:00;;;;;;;119.35;65.55;;;5.10;99.90;;;;;;5091111;28;20265;-74
2020/12/11 08:23:44;;;;;;;113.13;65.15;;;5.10;99.90;;;;;;5094756;28;20020;-72
2020/12/11 08:26:19;;;;;;;111.80;64.22;;;5.10;99.90;;;;;;5088525;28;20032;-72
2020/12/11 08:28:47;;;;;;;123.40;69.50;;;5.20;99.90;;;;;;5096331;28;20016;-70
2020/12/11 08:31:22;;;;;;;137.48;80.47;;;5.30;99.90;;;;;;5096564;28;20016;-71
2020/12/11 08:34:01;;;;;;;128.82;69.90;;;5.30;99.90;;;;;;5096501;28;20089;-72
2020/12/11 08:36:29;;;;;;;134.73;73.55;;;5.30;99.90;;;;;;5096930;28;20024;-72
2020/12/11 08:39:06;;;;;;;115.63;65.30;;;5.30;99.90;;;;;;5095936;28;20020;-71
2020/12/11 08:41:33;;;;;;;128.70;69.30;;;5.20;99.90;;;;;;5096099;28;20456;-72
2020/12/11 08:44:01;;;;;;;137.45;74.70;;;5.10;99.90;;;;;;5096151;28;20614;-73
2020/12/11 08:46:36;;;;;;;123.25;71.35;;;5.20;99.90;;;;;;5095226;28;20073;-73
2020/12/11 08:49:23;;;;;;;135.70;72.97;;;5.30;99.90;;;;;;5090650;28;20495;-69
2020/12/11 08:51:49;;;;;;;123.82;72.88;;;5.20;99.90;;;;;;5090626;28;20020;-70
2020/12/11 08:54:25;;;;;;;124.22;73.13;;;5.20;99.90;;;;;;5095884;28;20080;-70
2020/12/11 08:56:51;;;;;;;112.82;59.50;;;5.30;99.90;;;;;;5094545;28;20185;-72
2020/12/11 08:59:16;;;;;;;107.93;59.20;;;5.20;99.90;;;;;;5094257;28;20505;-74
2020/12/11 09:01:42;;;;;;;107.78;60.33;;;5.20;99.90;;;;;;5094728;28;20020;-74
2020/12/11 09:04:08;;;;;;;104.05;55.85;;;5.20;99.90;;;;;;5095872;28;20028;-73
2020/12/11 09:06:34;;;;;;;100.43;50.80;;;5.30;99.90;;;;;;5094330;28;20063;-71
2020/12/11 09:09:01;;;;;;;88.78;50.08;;;5.10;99.90;;;;;;5085820;28;20117;-73
2020/12/11 09:11:27;;;;;;;92.65;47.75;;;5.10;99.90;;;;;;5095275;28;20027;-72
2020/12/11 09:13:52;;;;;;;108.78;50.58;;;5.10;99.90;;;;;;5094436;28;20028;-73
2020/12/11 09:16:18;;;;;;;105.03;52.63;;;5.10;99.90;;;;;;5085463;28;20497;-72
2020/12/11 09:18:44;;;;;;;85.60;43.95;;;5.10;99.90;;;;;;5081297;28;20412;-72
2020/12/11 09:21:10;;;;;;;76.30;38.42;;;5.20;99.90;;;;;;5094584;28;20088;-72
2020/12/11 09:23:36;;;;;;;69.25;37.45;;;5.20;99.90;;;;;;5094925;28;20058;-72
2020/12/11 09:26:02;;;;;;;70.13;38.15;;;5.30;99.90;;;;;;5095520;28;20462;-70
2020/12/11 09:28:27;;;;;;;74.05;39.20;;;5.40;99.90;;;;;;5095203;28;20036;-71
2020/12/11 09:30:53;;;;;;;83.80;43.20;;;5.40;99.90;;;;;;5094830;28;20027;-71
2020/12/11 09:33:25;;;;;;;76.20;40.67;;;5.50;99.90;;;;;;5094734;28;20119;-71
2020/12/11 09:35:51;;;;;;;81.18;40.72;;;5.50;99.90;;;;;;5094164;28;20036;-72
2020/12/11 09:38:17;;;;;;;82.82;41.28;;;5.50;99.90;;;;;;5094422;28;20081;-71
2020/12/11 09:51:00;;;;;;;65.95;31.45;;;5.50;99.90;;;;;;5095108;28;20028;-72
2020/12/11 09:56:02;;;;;;;76.47;36.85;;;5.60;99.90;;;;;;5094596;28;20069;-71
2020/12/11 09:58:28;;;;;;;71.45;36.97;;;5.60;99.90;;;;;;5094741;28;20073;-71
2020/12/11 10:00:54;;;;;;;78.72;38.45;;;5.50;99.90;;;;;;5094521;28;20390;-74
2020/12/11 10:03:23;;;;;;;86.00;45.25;;;5.50;99.90;;;;;;5094179;28;20028;-73
2020/12/11 10:05:49;;;;;;;90.00;44.90;;;5.50;99.90;;;;;;5094649;28;20059;-73
2020/12/11 10:08:15;;;;;;;94.30;47.83;;;5.50;99.90;;;;;;5093884;28;20055;-73
2020/12/11 10:10:42;;;;;;;88.55;44.83;;;5.70;99.90;;;;;;5078094;28;20040;-71
2020/12/11 10:13:08;;;;;;;78.28;43.25;;;5.70;99.90;;;;;;5074572;28;20124;-73
2020/12/11 10:15:34;;;;;;;94.78;45.90;;;5.80;99.90;;;;;;5073540;28;20024;-72
2020/12/11 10:18:04;;;;;;;81.57;42.50;;;5.80;99.90;;;;;;5072833;28;20031;-72
2020/12/11 10:20:30;;;;;;;84.85;40.92;;;5.80;99.90;;;;;;5077653;28;20029;-72
2020/12/11 10:22:56;;;;;;;74.72;39.13;;;5.80;99.90;;;;;;5076526;28;20414;-71
2020/12/11 10:25:22;;;;;;;66.53;39.17;;;5.80;99.90;;;;;;5080092;28;20027;-70
2020/12/11 10:27:47;;;;;;;73.82;40.55;;;5.80;99.90;;;;;;5075454;28;20017;-73
2020/12/11 10:30:14;;;;;;;78.47;45.22;;;5.80;99.90;;;;;;5073580;28;20073;-72
2020/12/11 10:32:40;;;;;;;75.82;37.92;;;5.90;99.90;;;;;;5073405;28;20021;-71
2020/12/11 10:35:07;;;;;;;64.10;31.70;;;5.80;99.90;;;;;;5072824;28;20464;-71
2020/12/11 10:37:33;;;;;;;63.63;34.55;;;5.80;99.90;;;;;;5074885;28;20423;-74
2020/12/11 10:39:58;;;;;;;66.18;34.63;;;5.70;99.90;;;;;;5074425;28;20481;-72
2020/12/11 10:42:24;;;;;;;67.75;32.80;;;5.70;99.90;;;;;;5091098;28;20028;-73
2020/12/11 10:44:50;;;;;;;70.90;34.45;;;5.70;99.90;;;;;;5093827;28;20074;-72
2020/12/11 10:47:16;;;;;;;77.32;41.15;;;5.60;99.90;;;;;;5094035;28;20102;-73
2020/12/11 10:49:42;;;;;;;95.95;46.72;;;5.70;99.90;;;;;;5075416;28;20055;-71
2020/12/11 10:52:08;;;;;;;94.43;49.20;;;5.90;99.90;;;;;;5093589;28;20035;-72
2020/12/11 10:54:33;;;;;;;127.63;64.13;;;5.90;99.90;;;;;;5093480;28;20794;-71
2020/12/11 10:56:59;;;;;;;104.50;50.42;;;6.00;99.90;;;;;;5075661;28;20024;-72
2020/12/11 10:59:25;;;;;;;95.35;49.45;;;6.00;99.90;;;;;;5093234;28;20028;-72
2020/12/11 11:01:51;;;;;;;80.50;44.55;;;6.00;99.90;;;;;;5075678;28;20110;-72
2020/12/11 11:04:20;;;;;;;68.13;36.88;;;6.10;99.90;;;;;;5093458;28;20438;-73
2020/12/11 11:06:53;;;;;;;69.88;37.58;;;6.10;99.90;;;;;;5075037;28;20020;-73
2020/12/11 11:11:52;;;;;;;56.58;33.90;;;6.10;99.90;;;;;;5093169;28;20036;-73
2020/12/11 11:27:23;;;;;;;58.90;30.85;;;6.00;99.90;;;;;;5076175;28;20037;-72
2020/12/11 11:29:48;;;;;;;68.55;35.67;;;6.00;99.90;;;;;;5073240;28;20450;-70
2020/12/11 11:32:14;;;;;;;67.25;39.10;;;6.00;99.90;;;;;;5073205;28;20028;-73
2020/12/11 11:34:40;;;;;;;70.75;38.20;;;6.00;99.90;;;;;;5072158;28;20031;-72
2020/12/11 11:37:06;;;;;;;76.25;42.95;;;6.10;99.90;;;;;;5072269;28;20024;-74
2020/12/11 11:39:31;;;;;;;71.68;41.72;;;6.10;99.90;;;;;;5073800;28;20071;-71
2020/12/11 11:41:57;;;;;;;89.07;45.30;;;6.20;99.90;;;;;;5074080;28;20369;-71
2020/12/11 11:46:53;;;;;;;71.03;36.95;;;6.10;99.90;;;;;;5072128;28;20111;-73
2020/12/11 11:49:25;;;;;;;89.80;45.20;;;6.20;99.90;;;;;;5072748;28;20043;-71
2020/12/11 11:52:19;;;;;;;71.43;37.75;;;6.10;99.90;;;;;;5074599;28;20088;-74
2020/12/11 11:54:37;;;;;;;71.95;40.40;;;6.20;99.90;;;;;;5075435;28;20762;-75
2020/12/11 11:57:03;;;;;;;74.03;38.28;;;6.10;99.90;;;;;;5068631;28;20116;-72
2020/12/11 11:59:29;;;;;;;79.82;42.45;;;6.20;99.90;;;;;;5053157;28;20112;-72
2020/12/11 12:01:55;;;;;;;64.70;36.83;;;6.20;99.90;;;;;;5086720;28;20431;-71
2020/12/11 12:04:21;;;;;;;78.32;38.22;;;6.00;99.90;;;;;;5076814;28;20036;-74
2020/12/11 12:06:47;;;;;;;90.03;48.75;;;6.10;99.90;;;;;;5078116;28;20020;-74
2020/12/11 12:09:13;;;;;;;84.43;42.58;;;6.10;99.90;;;;;;5072195;28;20394;-74
2020/12/11 12:11:39;;;;;;;78.93;36.13;;;6.10;99.90;;;;;;5078113;28;20036;-71
2020/12/11 12:14:05;;;;;;;90.15;46.42;;;6.10;99.90;;;;;;5073698;28;20020;-72
2020/12/11 12:16:32;;;;;;;88.20;43.70;;;6.20;99.90;;;;;;5075170;28;20037;-71
2020/12/11 12:18:59;;;;;;;68.78;37.25;;;6.20;99.90;;;;;;5074577;28;20035;-70
2020/12/11 12:22:07;;;;;;;73.57;38.47;;;6.10;99.90;;;;;;5072364;28;20378;-72
2020/12/11 12:29:30;;;;;;;71.82;40.55;;;6.30;99.90;;;;;;5091174;28;20023;-72
2020/12/11 12:32:01;;;;;;;76.43;37.53;;;6.30;99.90;;;;;;5092313;28;20024;-75
2020/12/11 12:44:40;;;;;;;65.53;33.05;;;6.40;99.90;;;;;;5092099;28;20024;-73
2020/12/11 12:47:06;;;;;;;73.53;36.25;;;6.40;99.90;;;;;;5092016;28;20081;-74
2020/12/11 12:49:32;;;;;;;92.50;47.00;;;6.50;99.90;;;;;;5091330;28;20100;-76
2020/12/11 12:51:58;;;;;;;84.97;44.13;;;6.50;99.90;;;;;;5091893;28;20376;-74
2020/12/11 12:54:24;;;;;;;89.25;43.22;;;6.60;99.90;;;;;;5091534;28;20028;-75
2020/12/11 12:56:58;;;;;;;101.55;53.28;;;6.60;99.90;;;;;;5095116;28;20107;-72
2020/12/11 12:59:36;;;;;;;129.23;64.53;;;6.70;99.90;;;;;;5095457;28;20046;-74
2020/12/11 13:07:19;;;;;;;61.67;31.80;;;6.70;99.90;;;;;;5077637;28;20039;-72
2020/12/11 13:09:45;;;;;;;60.53;30.55;;;6.70;99.90;;;;;;5078629;28;20445;-78
2020/12/11 13:12:11;;;;;;;67.03;33.90;;;6.70;99.90;;;;;;5075470;28;20027;-74
2020/12/11 13:14:37;;;;;;;79.97;38.85;;;6.70;99.90;;;;;;5082670;28;20381;-78
2020/12/11 13:17:03;;;;;;;73.53;39.78;;;6.70;99.90;;;;;;5075169;28;20498;-75
2020/12/11 13:19:31;;;;;;;78.60;43.63;;;6.80;99.90;;;;;;5072502;28;20111;-74
2020/12/11 13:27:30;;;;;;;59.28;31.23;;;6.70;99.90;;;;;;5077627;28;20036;-74
2020/12/11 13:29:57;;;;;;;62.17;33.42;;;6.70;99.90;;;;;;5073705;28;20027;-73
2020/12/11 13:32:23;;;;;;;48.13;28.85;;;6.60;99.90;;;;;;5080228;28;20111;-71
2020/12/11 13:34:49;;;;;;;51.70;26.52;;;6.70;99.90;;;;;;5085220;28;20162;-70